Time;durP1;ratioP1;P1;durP2;ratioP2;P2;SDS_P1;SDS_P2;PMS_P1;PMS_P2;Temp;Humidity;BMP_temperature;BMP_pressure;BME280_temperature;BME280_humidity;BME280_pressure;Samples;Min_cycle;Max_cycle;Signal;HPM_P1;HPM_P2
2023/04/20 00:00:38;;;;;;;3.08;2.10;;;;;;;11.66;63.12;100877.44;5027238;28;20492;-90
2023/04/20 00:03:03;;;;;;;4.30;2.95;;;;;;;11.80;62.97;100894.06;4994522;28;20097;-92
2023/04/20 00:05:30;;;;;;;3.20;2.40;;;;;;;11.81;63.39;100890.59;5011105;28;20030;-91
2023/04/20 00:07:56;;;;;;;5.82;3.50;;;;;;;11.83;63.30;100893.94;5011047;28;20030;-92
2023/04/20 00:10:21;;;;;;;5.35;3.20;;;;;;;11.82;63.37;100889.69;5010960;28;20041;-91
2023/04/20 00:12:47;;;;;;;3.80;2.67;;;;;;;11.82;63.45;100874.13;5027696;28;20061;-91
2023/04/20 00:15:12;;;;;;;4.55;2.15;;;;;;;11.78;63.31;100876.81;5010718;28;20034;-91
2023/04/20 00:17:38;;;;;;;3.83;2.60;;;;;;;11.86;64.10;100883.41;5010538;28;20081;-91
2023/04/20 00:20:04;;;;;;;5.57;2.65;;;;;;;11.83;63.79;100875.81;5010871;28;20480;-91
2023/04/20 00:22:29;;;;;;;3.13;2.25;;;;;;;11.87;64.21;100877.31;5010653;28;20400;-91
2023/04/20 00:24:55;;;;;;;5.95;3.22;;;;;;;11.90;64.18;100879.78;5010867;28;20030;-92
2023/04/20 00:27:20;;;;;;;4.85;2.90;;;;;;;11.77;64.48;100858.75;4994415;28;20404;-90
2023/04/20 00:29:46;;;;;;;3.45;1.80;;;;;;;11.87;64.28;100879.91;4994173;28;20030;-91
2023/04/20 00:32:11;;;;;;;4.57;2.35;;;;;;;11.86;64.29;100875.63;5010284;28;20030;-91
2023/04/20 00:34:37;;;;;;;4.38;2.40;;;;;;;11.73;64.69;100872.78;5026957;28;20042;-91
2023/04/20 00:37:02;;;;;;;4.82;3.28;;;;;;;11.86;64.23;100883.41;4993863;28;20412;-93
2023/04/20 00:39:28;;;;;;;5.85;2.80;;;;;;;11.79;64.41;100880.25;5010434;28;20034;-91
2023/04/20 00:41:53;;;;;;;4.22;3.13;;;;;;;11.83;64.70;100875.81;5026812;28;20033;-91
2023/04/20 00:44:18;;;;;;;3.58;2.97;;;;;;;11.80;64.87;100879.38;5010426;28;20030;-92
2023/04/20 00:46:44;;;;;;;4.78;2.55;;;;;;;11.81;65.02;100875.03;4993777;28;20464;-93
2023/04/20 00:49:10;;;;;;;10.82;3.40;;;;;;;11.66;65.15;100850.69;5010300;28;20088;-89
2023/04/20 00:51:35;;;;;;;4.43;2.25;;;;;;;11.71;64.95;100867.69;5009820;28;20030;-89
2023/04/20 00:54:01;;;;;;;7.63;3.35;;;;;;;11.58;65.61;100834.66;5026610;28;20041;-91
2023/04/20 00:56:26;;;;;;;3.53;2.83;;;;;;;11.78;65.60;100868.19;5010269;28;20113;-91
2023/04/20 00:58:52;;;;;;;4.45;3.10;;;;;;;11.86;65.44;100870.44;4992463;28;20503;-92
2023/04/20 01:01:18;;;;;;;6.43;3.15;;;;;;;11.83;65.12;100862.84;5009524;28;20495;-91
2023/04/20 01:03:44;;;;;;;3.95;3.17;;;;;;;11.84;65.89;100870.53;4993458;28;20050;-91
2023/04/20 01:06:09;;;;;;;4.47;2.90;;;;;;;11.89;65.93;100872.88;5009765;28;20440;-92
2023/04/20 01:08:35;;;;;;;4.03;2.75;;;;;;;11.91;65.42;100874.50;5009859;28;20034;-92
2023/04/20 01:11:01;;;;;;;4.82;3.17;;;;;;;11.63;65.47;100836.13;5026331;28;20037;-93
2023/04/20 01:13:26;;;;;;;7.18;3.70;;;;;;;11.66;65.61;100830.78;4994323;28;20030;-92
2023/04/20 01:15:52;;;;;;;3.30;2.78;;;;;;;11.92;65.83;100862.38;4993377;28;20491;-92
2023/04/20 01:18:18;;;;;;;3.45;2.97;;;;;;;11.72;65.97;100846.03;5009746;28;20419;-92
2023/04/20 01:20:45;;;;;;;3.58;2.53;;;;;;;11.94;65.32;100869.16;4993330;28;20026;-93
2023/04/20 01:23:11;;;;;;;7.70;3.05;;;;;;;11.90;65.54;100856.44;5009316;28;20408;-91
2023/04/20 01:25:36;;;;;;;4.93;3.10;;;;;;;11.95;65.03;100868.22;5009569;28;20034;-93
2023/04/20 01:28:03;;;;;;;5.28;2.97;;;;;;;11.97;65.63;100873.34;5025389;28;20034;-92
2023/04/20 01:30:29;;;;;;;3.88;2.55;;;;;;;11.96;65.47;100862.13;5025569;28;20512;-92
2023/04/20 01:32:54;;;;;;;7.03;3.38;;;;;;;12.05;65.59;100863.41;5009218;28;20026;-92
2023/04/20 01:35:20;;;;;;;9.27;3.97;;;;;;;12.03;65.52;100857.47;5025666;28;20026;-92
2023/04/20 01:37:45;;;;;;;3.85;2.58;;;;;;;11.81;65.63;100825.78;5009213;28;20413;-91
2023/04/20 01:40:11;;;;;;;6.72;3.72;;;;;;;12.08;65.77;100855.47;4992803;28;20030;-91
2023/04/20 01:42:37;;;;;;;6.07;2.95;;;;;;;12.14;65.55;100862.09;5008853;28;20041;-91
2023/04/20 01:45:04;;;;;;;6.28;3.38;;;;;;;11.90;65.16;100827.91;5008916;28;20035;-92
2023/04/20 01:47:30;;;;;;;4.00;2.78;;;;;;;12.10;65.68;100853.66;4992800;28;20026;-90
2023/04/20 01:49:55;;;;;;;3.78;3.00;;;;;;;12.02;65.14;100848.03;4992425;28;20038;-90
2023/04/20 01:52:20;;;;;;;3.85;2.65;;;;;;;12.01;65.87;100856.72;5023950;28;20034;-90
2023/04/20 01:54:46;;;;;;;6.03;3.92;;;;;;;12.05;65.33;100860.81;5025251;28;20026;-91
2023/04/20 01:57:11;;;;;;;3.53;2.67;;;;;;;11.96;65.14;100845.72;5025433;28;20038;-91
2023/04/20 01:59:37;;;;;;;7.88;4.00;;;;;;;12.01;65.51;100854.97;4993084;28;20081;-92
2023/04/20 02:02:02;;;;;;;5.75;3.25;;;;;;;12.02;65.70;100850.63;5008776;28;20023;-92
2023/04/20 02:04:28;;;;;;;5.55;3.10;;;;;;;11.98;65.57;100841.31;5008816;28;20033;-91
2023/04/20 02:06:53;;;;;;;5.55;3.58;;;;;;;12.00;65.56;100855.06;5008765;28;20025;-92
2023/04/20 02:09:18;;;;;;;4.28;3.10;;;;;;;11.98;65.96;100846.47;5025052;28;20038;-91
2023/04/20 02:11:44;;;;;;;4.55;3.33;;;;;;;11.99;65.60;100853.34;5008365;28;20037;-91
2023/04/20 02:14:09;;;;;;;4.68;3.53;;;;;;;11.99;65.46;100851.59;4992298;28;20033;-93
2023/04/20 02:16:35;;;;;;;4.90;3.45;;;;;;;12.03;65.40;100849.69;5008436;28;20026;-92
2023/04/20 02:19:01;;;;;;;4.85;2.78;;;;;;;12.04;65.49;100848.78;4992115;28;20504;-91
2023/04/20 02:21:26;;;;;;;6.45;4.85;;;;;;;12.06;65.75;100844.34;4993232;28;20113;-91
2023/04/20 02:23:52;;;;;;;3.42;2.63;;;;;;;11.95;65.49;100850.09;4992296;28;20031;-92
2023/04/20 02:26:17;;;;;;;4.28;3.15;;;;;;;11.96;66.53;100846.56;5007872;28;20491;-92
2023/04/20 02:28:43;;;;;;;6.13;3.60;;;;;;;11.90;67.01;100833.94;4991953;28;20022;-91
2023/04/20 02:31:08;;;;;;;5.93;3.38;;;;;;;11.97;66.61;100839.63;5008280;28;20034;-91
2023/04/20 02:33:34;;;;;;;4.72;3.47;;;;;;;11.92;66.36;100847.66;5024671;28;20030;-90
2023/04/20 02:35:59;;;;;;;5.18;3.10;;;;;;;11.85;66.48;100835.91;5024483;28;20042;-91
2023/04/20 02:38:25;;;;;;;4.15;3.53;;;;;;;11.91;66.64;100843.38;5008180;28;20092;-92
2023/04/20 02:40:50;;;;;;;4.68;3.53;;;;;;;11.80;67.16;100844.81;4991714;28;20022;-91
2023/04/20 02:43:16;;;;;;;7.13;2.92;;;;;;;11.50;67.21;100803.94;5024527;28;20031;-92
2023/04/20 02:45:41;;;;;;;7.57;4.32;;;;;;;11.66;67.68;100829.94;4991431;28;20343;-92
2023/04/20 02:48:06;;;;;;;4.97;3.25;;;;;;;11.77;67.23;100846.63;5008243;28;20030;-91
2023/04/20 02:50:32;;;;;;;5.80;3.65;;;;;;;11.75;67.49;100835.50;5008008;28;20041;-91
2023/04/20 02:52:57;;;;;;;6.35;4.10;;;;;;;11.78;67.67;100840.53;5008097;28;20484;-90
2023/04/20 02:55:23;;;;;;;4.88;3.50;;;;;;;11.71;67.56;100833.16;5007705;28;20034;-91
2023/04/20 02:57:48;;;;;;;7.78;3.72;;;;;;;11.83;67.57;100840.34;5008142;28;20590;-93
2023/04/20 03:00:14;;;;;;;6.10;3.67;;;;;;;11.67;67.15;100811.72;5007147;28;20471;-91
2023/04/20 03:02:39;;;;;;;5.78;4.22;;;;;;;11.81;67.84;100838.75;4992037;28;20141;-89
2023/04/20 03:05:06;;;;;;;5.68;3.05;;;;;;;11.86;67.37;100834.16;5023290;28;20455;-89
2023/04/20 03:07:31;;;;;;;4.70;3.67;;;;;;;11.90;67.86;100840.88;4990299;28;20081;-89
2023/04/20 03:09:57;;;;;;;4.80;3.80;;;;;;;11.85;67.76;100829.88;4990170;28;20022;-88
2023/04/20 03:12:22;;;;;;;7.07;4.85;;;;;;;11.75;67.69;100822.53;5006780;28;20412;-88
2023/04/20 03:14:48;;;;;;;5.80;4.15;;;;;;;11.87;67.42;100830.66;4991556;28;20086;-88
2023/04/20 03:17:13;;;;;;;4.40;3.10;;;;;;;11.84;67.83;100839.44;5006554;28;20038;-87
2023/04/20 03:19:39;;;;;;;5.65;4.18;;;;;;;11.85;68.27;100845.44;5022739;28;20034;-88
2023/04/20 03:22:05;;;;;;;6.05;3.90;;;;;;;11.68;68.02;100818.56;5006127;28;20037;-87
2023/04/20 03:24:30;;;;;;;5.07;3.95;;;;;;;11.86;68.54;100852.31;4991140;28;20030;-88
2023/04/20 03:26:56;;;;;;;4.35;3.10;;;;;;;11.77;68.19;100844.03;4989964;28;20026;-87
2023/04/20 03:29:21;;;;;;;4.82;3.78;;;;;;;11.85;68.17;100845.44;4990743;28;20026;-88
2023/04/20 03:31:47;;;;;;;9.80;5.05;;;;;;;11.73;68.24;100841.69;5006469;28;20034;-87
2023/04/20 03:34:12;;;;;;;5.85;3.83;;;;;;;11.81;68.74;100841.34;5007844;28;20026;-87
2023/04/20 03:36:38;;;;;;;4.97;3.90;;;;;;;11.78;68.17;100844.88;5009065;28;20495;-88
2023/04/20 03:39:03;;;;;;;4.95;4.18;;;;;;;11.82;68.75;100843.84;5021775;28;20399;-88
2023/04/20 03:41:30;;;;;;;6.75;4.50;;;;;;;11.71;68.88;100821.03;5025938;28;20415;-90
2023/04/20 03:43:55;;;;;;;6.63;4.55;;;;;;;11.80;69.12;100834.47;5026087;28;20030;-91
2023/04/20 03:46:21;;;;;;;5.47;3.70;;;;;;;11.94;68.56;100842.38;5026200;28;20083;-89
2023/04/20 03:48:46;;;;;;;6.63;4.10;;;;;;;11.96;68.62;100843.97;5043131;28;20072;-92
2023/04/20 03:51:11;;;;;;;5.60;4.13;;;;;;;11.95;68.35;100834.53;5009220;28;20088;-89
2023/04/20 03:53:37;;;;;;;6.07;4.25;;;;;;;11.95;68.78;100837.13;5009617;28;20081;-90
2023/04/20 03:56:02;;;;;;;9.30;4.35;;;;;;;12.00;68.49;100840.31;4993501;28;20164;-90
2023/04/20 03:58:28;;;;;;;5.38;3.55;;;;;;;12.01;68.21;100841.16;5009612;28;20029;-90
2023/04/20 04:01:00;;;;;;;9.98;6.95;;;;;;;11.91;68.63;100834.78;4993483;28;20037;-90
2023/04/20 04:03:26;;;;;;;;;;;;;;;11.97;68.88;100847.41;5009669;28;20037;-90
2023/04/20 04:05:51;;;;;;;8.70;5.93;;;;;;;11.87;68.74;100836.66;5011059;28;19936;-92
2023/04/20 04:08:16;;;;;;;12.07;7.72;;;;;;;12.02;69.44;100843.69;5008613;28;20084;-91
2023/04/20 04:10:42;;;;;;;16.70;8.48;;;;;;;12.24;70.55;100847.75;5010007;28;20033;-92
2023/04/20 04:13:07;;;;;;;12.57;7.38;;;;;;;12.23;67.49;100844.31;5009797;28;20041;-90
2023/04/20 04:15:33;;;;;;;13.85;8.25;;;;;;;12.31;68.11;100859.50;5008339;28;20034;-90
2023/04/20 04:17:58;;;;;;;13.25;7.72;;;;;;;11.98;67.31;100800.66;5009517;28;20033;-85
2023/04/20 04:20:24;;;;;;;9.95;7.07;;;;;;;12.29;68.39;100850.91;5010679;28;20026;-92
2023/04/20 04:22:50;;;;;;;11.77;6.25;;;;;;;12.30;67.62;100855.22;5011701;28;20030;-91
2023/04/20 04:25:16;;;;;;;12.25;6.25;;;;;;;12.26;67.00;100856.28;5009411;28;20053;-91
2023/04/20 04:27:42;;;;;;;8.43;5.38;;;;;;;12.32;67.38;100862.00;5025848;28;20030;-91
2023/04/20 04:30:09;;;;;;;7.90;5.85;;;;;;;12.22;67.59;100847.84;5009053;28;20034;-87
2023/04/20 04:32:35;;;;;;;8.85;5.85;;;;;;;12.23;68.27;100862.47;5009817;28;20029;-84
2023/04/20 04:35:01;;;;;;;11.23;6.90;;;;;;;12.01;68.01;100816.06;5012443;28;20034;-85
2023/04/20 04:37:27;;;;;;;10.93;5.90;;;;;;;12.22;68.08;100853.00;5011965;28;20557;-88
2023/04/20 04:39:52;;;;;;;10.60;7.15;;;;;;;12.33;67.52;100866.25;5013081;28;20069;-90
2023/04/20 04:42:18;;;;;;;9.15;5.82;;;;;;;12.29;67.61;100861.28;5013645;28;20479;-88
2023/04/20 04:44:43;;;;;;;10.55;6.18;;;;;;;12.21;67.08;100859.13;5013760;28;20053;-85
2023/04/20 04:47:10;;;;;;;11.30;6.93;;;;;;;12.27;66.94;100860.53;5013680;28;20037;-90
2023/04/20 04:49:36;;;;;;;12.18;7.18;;;;;;;12.42;67.49;100877.09;5002826;28;20519;-90
2023/04/20 04:52:01;;;;;;;10.20;5.53;;;;;;;12.35;67.24;100879.97;5032542;28;20056;-90
2023/04/20 04:54:27;;;;;;;7.93;5.47;;;;;;;12.44;67.25;100875.25;5014573;28;20033;-92
2023/04/20 04:56:52;;;;;;;12.90;7.40;;;;;;;12.32;67.74;100856.81;4998280;28;20396;-92
2023/04/20 04:59:18;;;;;;;9.15;5.40;;;;;;;12.55;66.63;100884.13;5012569;28;20439;-87
2023/04/20 05:01:43;;;;;;;8.45;5.43;;;;;;;12.60;66.98;100884.75;5011691;28;20030;-89
2023/04/20 05:04:08;;;;;;;8.27;5.47;;;;;;;12.67;66.83;100887.00;5014171;28;20053;-91
2023/04/20 05:06:34;;;;;;;11.80;7.20;;;;;;;12.58;66.41;100888.31;5014216;28;20022;-87
2023/04/20 05:08:59;;;;;;;9.30;7.00;;;;;;;12.60;66.44;100876.13;4996613;28;20041;-92
2023/04/20 05:11:25;;;;;;;14.52;6.95;;;;;;;12.29;67.19;100835.34;5012761;28;20040;-86
2023/04/20 05:13:50;;;;;;;10.48;6.63;;;;;;;12.62;67.76;100888.09;5013624;28;20029;-85
2023/04/20 05:16:16;;;;;;;11.25;7.40;;;;;;;12.54;67.65;100871.25;5014106;28;20029;-89
2023/04/20 05:18:41;;;;;;;12.52;7.07;;;;;;;12.65;67.28;100874.09;5013021;28;20034;-88
2023/04/20 05:21:07;;;;;;;15.75;8.80;;;;;;;12.84;67.62;100884.31;5018946;28;20037;-92
2023/04/20 05:23:32;;;;;;;9.90;5.60;;;;;;;12.85;67.42;100879.03;5013668;28;20061;-91
2023/04/20 05:25:58;;;;;;;12.82;7.10;;;;;;;12.87;67.19;100877.19;5012775;28;20034;-89
2023/04/20 05:28:23;;;;;;;14.75;8.20;;;;;;;12.94;66.67;100890.69;5012181;28;20582;-89
2023/04/20 05:30:48;;;;;;;9.02;5.90;;;;;;;12.97;66.34;100890.53;5012295;28;20034;-89
2023/04/20 05:33:14;;;;;;;10.75;6.38;;;;;;;12.88;66.55;100875.44;5028284;28;20025;-86
2023/04/20 05:35:39;;;;;;;8.18;5.47;;;;;;;12.97;66.89;100889.69;5011038;28;20046;-92
2023/04/20 05:38:05;;;;;;;12.38;7.00;;;;;;;12.99;65.96;100887.88;5011671;28;20034;-92
2023/04/20 05:40:33;;;;;;;13.10;6.32;;;;;;;13.04;66.26;100888.44;5018084;28;20037;-84
2023/04/20 05:42:59;;;;;;;8.00;5.45;;;;;;;12.96;66.70;100888.84;5017444;28;20033;-85
2023/04/20 05:45:25;;;;;;;12.70;7.60;;;;;;;13.08;66.43;100884.78;5029313;28;20033;-92
2023/04/20 05:47:56;;;;;;;10.57;5.65;;;;;;;13.25;66.56;100895.06;5014999;28;20076;-85
2023/04/20 05:50:23;;;;;;;11.53;5.87;;;;;;;13.30;65.76;100889.63;4998068;28;20141;-86
2023/04/20 05:52:49;;;;;;;12.50;7.13;;;;;;;13.27;65.93;100888.03;5010681;28;20088;-93
2023/04/20 05:55:14;;;;;;;14.23;7.60;;;;;;;13.22;66.75;100890.06;5009552;28;20065;-91
2023/04/20 05:57:43;;;;;;;13.45;7.78;;;;;;;13.44;65.71;100885.31;5018761;28;20470;-92
2023/04/20 06:00:14;;;;;;;14.20;8.00;;;;;;;13.48;65.53;100881.63;5028239;28;20108;-85
2023/04/20 06:02:40;;;;;;;15.93;8.25;;;;;;;13.48;65.08;100892.03;5011885;28;20104;-89
2023/04/20 06:05:06;;;;;;;22.23;9.23;;;;;;;13.53;64.53;100903.91;5014213;28;20504;-88
2023/04/20 06:07:31;;;;;;;18.27;9.00;;;;;;;13.47;64.81;100895.56;5037782;28;20018;-89
2023/04/20 06:09:59;;;;;;;16.33;9.63;;;;;;;13.45;63.97;100891.34;5013583;28;20092;-85
2023/04/20 06:12:25;;;;;;;14.57;8.20;;;;;;;13.53;65.04;100903.91;5024693;28;20022;-84
2023/04/20 06:14:50;;;;;;;19.05;7.15;;;;;;;13.61;64.80;100906.94;5008218;28;20037;-86
2023/04/20 06:17:16;;;;;;;14.25;7.95;;;;;;;13.66;63.08;100889.28;5012592;28;20034;-90
2023/04/20 06:19:41;;;;;;;10.73;6.72;;;;;;;13.74;63.66;100887.09;5012070;28;20033;-85
2023/04/20 06:22:07;;;;;;;14.85;6.88;;;;;;;13.95;63.87;100892.81;5016816;28;20041;-89
2023/04/20 06:24:33;;;;;;;12.00;6.80;;;;;;;14.09;63.96;100886.81;5010795;28;20040;-91
2023/04/20 06:27:00;;;;;;;13.35;7.25;;;;;;;14.18;63.46;100870.66;5011494;28;20041;-92
2023/04/20 06:29:25;;;;;;;9.65;5.35;;;;;;;14.32;61.60;100881.88;5029934;28;20029;-90
2023/04/20 06:31:51;;;;;;;10.23;6.00;;;;;;;14.51;60.93;100886.84;5030922;28;20029;-92
2023/04/20 06:34:16;;;;;;;17.90;8.23;;;;;;;14.69;61.14;100891.84;5025939;28;20407;-89
2023/04/20 06:36:42;;;;;;;13.95;7.50;;;;;;;14.84;60.52;100901.31;5009343;28;20034;-88
2023/04/20 06:39:08;;;;;;;16.23;8.82;;;;;;;14.93;60.48;100891.16;5019628;28;20084;-90
2023/04/20 06:41:33;;;;;;;7.28;5.10;;;;;;;15.10;59.75;100897.06;5030898;28;20026;-88
2023/04/20 06:43:59;;;;;;;10.48;6.97;;;;;;;15.16;60.11;100892.31;5046278;28;20033;-85
2023/04/20 06:46:24;;;;;;;10.68;6.18;;;;;;;15.29;59.51;100892.38;5011206;28;20025;-85
2023/04/20 06:48:50;;;;;;;15.85;6.32;;;;;;;15.31;58.30;100869.63;5011396;28;20553;-88
2023/04/20 06:51:15;;;;;;;15.40;6.75;;;;;;;15.40;55.13;100883.84;4995498;28;20046;-89
2023/04/20 06:53:40;;;;;;;9.73;5.05;;;;;;;15.53;55.01;100895.13;5021353;28;20033;-89
2023/04/20 06:56:06;;;;;;;10.27;5.10;;;;;;;15.57;56.73;100895.81;5016585;28;20033;-91
2023/04/20 06:58:32;;;;;;;7.30;4.63;;;;;;;15.71;54.90;100895.75;4993972;28;20045;-89
2023/04/20 07:00:57;;;;;;;13.90;6.70;;;;;;;15.77;55.01;100898.78;5011632;28;20032;-89
2023/04/20 07:03:23;;;;;;;11.80;7.70;;;;;;;15.82;53.32;100905.47;5011080;28;20034;-84
2023/04/20 07:05:48;;;;;;;11.30;6.72;;;;;;;15.89;53.76;100897.13;5021718;28;20687;-90
2023/04/20 07:08:16;;;;;;;9.20;5.95;;;;;;;15.94;54.28;100891.63;5011671;28;20025;-89
2023/04/20 07:10:42;;;;;;;14.80;6.45;;;;;;;16.06;54.49;100904.69;5009865;28;20025;-87
2023/04/20 07:13:07;;;;;;;10.57;6.30;;;;;;;16.09;53.29;100900.19;5030046;28;20033;-92
2023/04/20 07:15:33;;;;;;;7.47;5.10;;;;;;;16.12;53.52;100898.19;5009510;28;20686;-87
2023/04/20 07:17:58;;;;;;;8.90;5.35;;;;;;;16.17;53.71;100903.94;5009865;28;20026;-88
2023/04/20 07:20:24;;;;;;;11.18;5.93;;;;;;;16.22;53.50;100899.28;5041260;28;20029;-92
2023/04/20 07:22:50;;;;;;;8.25;4.60;;;;;;;16.37;53.65;100906.97;5015969;28;20542;-88
2023/04/20 07:25:16;;;;;;;9.80;5.10;;;;;;;16.22;53.68;100873.16;5028379;28;20026;-91
2023/04/20 07:27:42;;;;;;;8.57;4.95;;;;;;;16.54;53.09;100904.88;5034960;28;20030;-90
2023/04/20 07:30:09;;;;;;;11.95;5.80;;;;;;;16.53;53.38;100892.78;5013214;28;20036;-83
2023/04/20 07:32:35;;;;;;;10.18;5.45;;;;;;;16.64;54.10;100894.63;5008075;28;20083;-85
2023/04/20 07:35:00;;;;;;;10.18;5.50;;;;;;;16.62;52.31;100896.53;5023934;28;20063;-86
2023/04/20 07:37:26;;;;;;;13.77;6.15;;;;;;;16.66;52.34;100897.13;5008472;28;20060;-88
2023/04/20 07:39:52;;;;;;;10.38;6.07;;;;;;;16.84;52.46;100907.16;5010689;28;20025;-90
2023/04/20 07:42:18;;;;;;;9.93;5.72;;;;;;;16.99;53.54;100899.16;5025568;28;20412;-89
2023/04/20 07:44:44;;;;;;;9.82;6.18;;;;;;;17.17;53.96;100903.06;5036673;28;20075;-85
2023/04/20 07:47:09;;;;;;;8.45;4.57;;;;;;;17.15;52.92;100902.34;5027747;28;20418;-88
2023/04/20 07:49:36;;;;;;;8.13;5.15;;;;;;;17.20;52.25;100892.38;5008861;28;20516;-87
2023/04/20 07:52:02;;;;;;;8.38;4.90;;;;;;;17.43;52.05;100904.63;5028829;28;20501;-90
2023/04/20 07:54:27;;;;;;;6.25;4.80;;;;;;;17.37;50.55;100878.91;5028784;28;20022;-84
2023/04/20 07:56:53;;;;;;;7.78;5.32;;;;;;;17.55;50.63;100902.91;5014424;28;20021;-87
2023/04/20 07:59:19;;;;;;;6.63;4.72;;;;;;;17.66;49.99;100900.31;5046570;28;20060;-88
2023/04/20 08:01:45;;;;;;;6.93;3.85;;;;;;;17.74;49.19;100908.47;5028891;28;20026;-92
2023/04/20 08:04:11;;;;;;;8.18;4.85;;;;;;;17.82;50.92;100901.84;5015034;28;20026;-90
2023/04/20 08:06:36;;;;;;;7.18;4.57;;;;;;;17.85;49.18;100876.25;5027287;28;20065;-89
2023/04/20 08:09:02;;;;;;;9.27;4.32;;;;;;;18.09;48.71;100899.75;5019429;28;20037;-89
2023/04/20 08:11:28;;;;;;;6.95;4.95;;;;;;;18.10;49.18;100884.91;5044293;28;20092;-92
2023/04/20 08:13:53;;;;;;;7.22;4.03;;;;;;;18.12;48.09;100891.66;5033689;28;20032;-89
2023/04/20 08:16:19;;;;;;;10.20;6.13;;;;;;;18.18;49.06;100885.94;5015959;28;20109;-86
2023/04/20 08:18:45;;;;;;;7.78;4.63;;;;;;;18.27;48.66;100869.53;5028698;28;20026;-86
2023/04/20 08:21:10;;;;;;;5.57;4.00;;;;;;;18.56;48.33;100890.00;5015970;28;20014;-91
2023/04/20 08:23:35;;;;;;;12.35;4.78;;;;;;;18.50;47.29;100880.03;5021546;28;20037;-92
2023/04/20 08:26:02;;;;;;;9.93;5.65;;;;;;;18.56;47.30;100880.38;5026769;28;20052;-86
2023/04/20 08:28:27;;;;;;;7.43;4.63;;;;;;;18.54;46.57;100882.28;5031589;28;20026;-84
2023/04/20 08:30:53;;;;;;;6.57;4.75;;;;;;;18.47;47.22;100867.97;5026533;28;20082;-84
2023/04/20 08:33:18;;;;;;;6.07;4.18;;;;;;;18.66;47.08;100890.16;5012314;28;20038;-85
2023/04/20 08:35:44;;;;;;;8.65;4.55;;;;;;;18.67;47.05;100879.56;5011523;28;20499;-90
2023/04/20 08:38:10;;;;;;;7.30;4.13;;;;;;;18.77;46.62;100887.53;5010986;28;20029;-83
2023/04/20 08:40:36;;;;;;;6.45;3.70;;;;;;;18.81;45.46;100881.94;5019359;28;20026;-88
2023/04/20 08:43:01;;;;;;;10.13;5.10;;;;;;;18.87;46.09;100868.31;5031235;28;20057;-85
2023/04/20 08:45:27;;;;;;;10.18;5.18;;;;;;;18.99;46.96;100861.28;5032596;28;20033;-91
2023/04/20 08:47:52;;;;;;;8.48;4.45;;;;;;;19.23;46.48;100874.19;5019679;28;20113;-89
2023/04/20 08:50:18;;;;;;;8.88;4.13;;;;;;;19.32;46.99;100883.09;4998967;28;20046;-89
2023/04/20 08:52:44;;;;;;;8.70;4.88;;;;;;;19.29;45.17;100865.00;5029787;28;20018;-88
2023/04/20 08:55:09;;;;;;;10.40;5.07;;;;;;;19.24;45.78;100846.16;5013866;28;20081;-88
2023/04/20 08:57:35;;;;;;;8.93;4.82;;;;;;;19.34;46.40;100861.03;5013655;28;20034;-91
2023/04/20 09:00:01;;;;;;;9.60;5.68;;;;;;;19.56;46.55;100875.03;5010726;28;20057;-91
2023/04/20 09:02:26;;;;;;;7.78;4.68;;;;;;;19.71;45.50;100874.59;5010381;28;20030;-88
2023/04/20 09:05:03;;;;;;;7.50;3.97;;;;;;;19.63;45.43;100879.66;5026332;28;20033;-90
2023/04/20 09:07:28;;;;;;;9.10;5.00;;;;;;;19.28;45.54;100861.53;5036489;28;20041;-89
2023/04/20 09:09:55;;;;;;;9.10;4.60;;;;;;;19.28;44.68;100865.97;5031301;28;20037;-84
2023/04/20 09:12:20;;;;;;;6.90;4.45;;;;;;;19.29;45.65;100867.63;5012009;28;20033;-88
2023/04/20 09:14:46;;;;;;;8.02;4.07;;;;;;;19.42;45.21;100858.63;5000980;28;20033;-85
2023/04/20 09:17:13;;;;;;;8.45;4.13;;;;;;;19.69;46.70;100865.19;5012352;28;20041;-91
2023/04/20 09:19:39;;;;;;;9.70;5.57;;;;;;;19.65;44.78;100864.59;5030033;28;20049;-89
2023/04/20 09:22:05;;;;;;;6.88;4.30;;;;;;;19.28;45.38;100837.13;5026605;28;20033;-88
2023/04/20 09:24:34;;;;;;;8.32;4.25;;;;;;;19.25;43.85;100866.19;5014869;28;20026;-89
2023/04/20 09:27:01;;;;;;;5.78;4.03;;;;;;;19.15;44.60;100868.72;5010147;28;20116;-93
2023/04/20 09:29:27;;;;;;;6.07;3.67;;;;;;;19.15;44.52;100848.56;5013621;28;20026;-91
2023/04/20 09:31:53;;;;;;;5.18;3.25;;;;;;;19.58;43.46;100847.72;5027389;28;20081;-85
2023/04/20 09:34:18;;;;;;;5.97;3.75;;;;;;;19.87;42.49;100823.44;5027720;28;20502;-91
2023/04/20 09:36:45;;;;;;;7.72;4.68;;;;;;;20.39;42.06;100847.88;5014059;28;20416;-87
2023/04/20 09:39:17;;;;;;;6.05;3.42;;;;;;;20.52;39.90;100848.50;5008856;28;20061;-86
2023/04/20 09:41:42;;;;;;;;;;;;;;;20.52;40.77;100856.38;5007559;28;20121;-86
2023/04/20 09:44:08;;;;;;;9.35;3.72;;;;;;;20.73;39.68;100851.03;5005989;28;20000;-90
2023/04/20 09:46:35;;;;;;;6.70;4.60;;;;;;;20.66;40.10;100853.38;5013433;28;20018;-93
2023/04/20 09:49:08;;;;;;;6.45;3.80;;;;;;;20.87;40.80;100838.34;5030559;28;20032;-83
2023/04/20 09:51:35;;;;;;;6.00;3.85;;;;;;;21.14;39.37;100848.22;4994064;28;20050;-91
2023/04/20 09:54:02;;;;;;;4.93;3.15;;;;;;;21.26;38.02;100840.19;5030034;28;20398;-90
2023/04/20 09:56:28;;;;;;;7.55;3.50;;;;;;;21.34;37.92;100846.44;5031599;28;20120;-92
2023/04/20 09:58:53;;;;;;;10.25;4.10;;;;;;;21.26;39.71;100830.50;5027132;28;20121;-92
2023/04/20 10:01:19;;;;;;;7.25;3.92;;;;;;;21.02;42.39;100816.91;5027809;28;20180;-84
2023/04/20 10:03:45;;;;;;;4.95;3.53;;;;;;;20.71;41.50;100822.25;5012285;28;20034;-92
2023/04/20 10:06:40;;;;;;;7.30;4.22;;;;;;;20.36;41.56;100837.63;5010574;28;20033;-89
2023/04/20 10:09:06;;;;;;;5.07;3.63;;;;;;;20.14;42.26;100831.59;5004411;28;20038;-92
2023/04/20 10:11:43;;;;;;;6.03;3.85;;;;;;;19.97;42.49;100795.44;4992339;28;20158;-88
2023/04/20 10:14:16;;;;;;;7.53;4.00;;;;;;;20.46;42.20;100830.66;5009552;28;20160;-89
2023/04/20 10:16:42;;;;;;;5.78;3.70;;;;;;;20.80;43.01;100816.19;5009203;28;20058;-93
2023/04/20 10:19:07;;;;;;;6.07;3.60;;;;;;;21.16;41.48;100800.72;5028116;28;20931;-87
2023/04/20 10:21:43;;;;;;;5.45;3.70;;;;;;;21.30;39.78;100823.16;5017929;28;20037;-91
2023/04/20 10:24:08;;;;;;;8.85;3.83;;;;;;;20.92;40.51;100809.81;5023370;28;20491;-93
2023/04/20 10:26:41;;;;;;;7.80;4.30;;;;;;;20.56;40.97;100808.69;5016815;28;20095;-85
2023/04/20 10:29:07;;;;;;;10.23;6.18;;;;;;;20.07;40.96;100780.56;5010919;28;20061;-89
2023/04/20 10:31:39;;;;;;;7.00;3.95;;;;;;;20.03;42.09;100821.16;5008980;28;20022;-90
2023/04/20 10:34:04;;;;;;;;;;;;;;;20.26;42.92;100822.66;5021985;28;20030;-93
2023/04/20 10:36:32;;;;;;;7.72;4.75;;;;;;;20.51;42.16;100820.56;5044283;28;20005;-91
2023/04/20 10:38:59;;;;;;;4.95;2.88;;;;;;;20.90;39.11;100816.19;5023955;28;20021;-93
2023/04/20 10:41:24;;;;;;;5.15;3.00;;;;;;;21.10;38.65;100804.72;5017994;28;20030;-90
2023/04/20 10:43:50;;;;;;;5.65;3.40;;;;;;;21.40;38.75;100803.75;5026609;28;20036;-92
2023/04/20 10:46:22;;;;;;;6.70;4.22;;;;;;;21.45;38.93;100801.56;5010052;28;20038;-93
2023/04/20 10:49:00;;;;;;;6.07;3.55;;;;;;;21.41;39.85;100810.69;5007977;28;20032;-93
2023/04/20 10:51:26;;;;;;;4.75;3.40;;;;;;;21.09;40.75;100808.31;5010560;28;20133;-94
2023/04/20 10:54:18;;;;;;;5.25;3.45;;;;;;;21.04;40.02;100807.06;5009727;28;20029;-91
2023/04/20 10:56:52;;;;;;;7.75;3.35;;;;;;;20.62;41.00;100766.06;5007934;28;20048;-89
2023/04/20 10:59:22;;;;;;;4.53;3.00;;;;;;;20.81;39.20;100788.91;5010675;28;20104;-89
2023/04/20 11:01:47;;;;;;;5.28;3.08;;;;;;;21.03;38.71;100800.13;4998111;28;20125;-86
2023/04/20 11:04:14;;;;;;;6.13;3.67;;;;;;;21.27;37.08;100797.97;5012298;28;20113;-86
2023/04/20 11:06:40;;;;;;;4.45;3.20;;;;;;;21.53;36.21;100765.78;5002808;28;20030;-90
2023/04/20 11:09:23;;;;;;;3.80;2.85;;;;;;;21.97;37.54;100791.44;5007582;28;20038;-91
2023/04/20 11:12:03;;;;;;;4.18;2.95;;;;;;;22.15;36.91;100791.53;5011876;28;20025;-91
2023/04/20 11:14:29;;;;;;;5.07;3.25;;;;;;;22.13;37.24;100776.84;5028040;28;20034;-89
2023/04/20 11:16:55;;;;;;;7.65;3.97;;;;;;;22.13;37.15;100790.03;4999779;28;20089;-92
2023/04/20 11:19:24;;;;;;;6.35;3.28;;;;;;;21.82;37.56;100794.66;4980763;28;20038;-87